createdAt,value
2018-05-15T00:00:12.121Z,97553.58
2018-05-15T00:00:43.782Z,97546.02
2018-05-15T00:01:15.383Z,97552.14
2018-05-15T00:01:46.976Z,97544.09
2018-05-15T00:02:18.566Z,97550.61
2018-05-15T00:02:50.137Z,97543.86
2018-05-15T00:03:21.738Z,97543.92
2018-05-15T00:03:53.326Z,97549.98
2018-05-15T00:04:24.920Z,97547.92
2018-05-15T00:04:56.493Z,97549.66
2018-05-15T00:05:28.124Z,97547.20
2018-05-15T00:05:59.759Z,97552.42
2018-05-15T00:06:31.362Z,97552.45
2018-05-15T00:07:02.950Z,97548.25
2018-05-15T00:07:34.533Z,97550.00
2018-05-15T00:08:06.125Z,97549.58
2018-05-15T00:08:37.714Z,97550.08
2018-05-15T00:09:09.317Z,97554.36
2018-05-15T00:09:40.931Z,97548.00
2018-05-15T00:10:12.512Z,97551.05
2018-05-15T00:10:44.114Z,97548.93
2018-05-15T00:11:15.738Z,97545.16
2018-05-15T00:11:47.366Z,97549.05
2018-05-15T00:12:18.969Z,97547.34
2018-05-15T00:12:50.568Z,97546.14
2018-05-15T00:13:22.177Z,97547.00
2018-05-15T00:13:53.772Z,97553.86
2018-05-15T00:14:25.386Z,97545.81
2018-05-15T00:14:56.965Z,97549.68
2018-05-15T00:15:28.578Z,97548.89
2018-05-15T00:16:00.152Z,97544.63
2018-05-15T00:16:31.780Z,97550.22
2018-05-15T00:17:03.386Z,97552.86
2018-05-15T00:17:34.994Z,97551.20
2018-05-15T00:18:06.588Z,97553.78
2018-05-15T00:18:38.197Z,97553.41
2018-05-15T00:19:09.769Z,97545.37
2018-05-15T00:19:41.370Z,97553.08
2018-05-15T00:20:12.949Z,97550.56
2018-05-15T00:20:44.534Z,97552.70
2018-05-15T00:21:16.138Z,97550.19
2018-05-15T00:21:47.768Z,97557.90
2018-05-15T00:22:19.373Z,97552.84
2018-05-15T00:22:50.962Z,97554.56
2018-05-15T00:23:22.532Z,97549.08
2018-05-15T00:23:54.182Z,97554.20
2018-05-15T00:24:25.768Z,97555.08
2018-05-15T00:24:57.373Z,97549.98
2018-05-15T00:25:28.976Z,97547.06
2018-05-15T00:26:00.559Z,97550.41
2018-05-15T00:26:32.137Z,97554.31
2018-05-15T00:27:03.748Z,97551.35
2018-05-15T00:27:35.354Z,97551.38
2018-05-15T00:28:06.941Z,97553.98
2018-05-15T00:28:38.541Z,97554.01
2018-05-15T00:29:10.112Z,97551.02
2018-05-15T00:29:41.713Z,97553.19
2018-05-15T00:30:13.326Z,97549.81
2018-05-15T00:30:44.929Z,97547.73
2018-05-15T00:31:16.514Z,97555.00
2018-05-15T00:31:48.098Z,97544.80
2018-05-15T00:32:19.734Z,97543.12
2018-05-15T00:32:51.353Z,97553.35
2018-05-15T00:33:22.934Z,97550.81
2018-05-15T00:33:54.518Z,97552.95
2018-05-15T00:34:26.108Z,97552.09
2018-05-15T00:34:57.814Z,97547.48
2018-05-15T00:35:29.398Z,97544.94
2018-05-15T00:36:00.972Z,97550.55
2018-05-15T00:36:32.565Z,97538.60
2018-05-15T00:37:04.160Z,97549.72
2018-05-15T00:37:35.766Z,97553.16
2018-05-15T00:38:07.374Z,97549.33
2018-05-15T00:38:38.958Z,97548.05
2018-05-15T00:39:10.548Z,97547.69
2018-05-15T00:39:42.154Z,97549.41
2018-05-15T00:40:13.827Z,97551.09
2018-05-15T00:40:45.419Z,97548.97
2018-05-15T00:41:16.993Z,97549.38
2018-05-15T00:41:48.600Z,97546.42
2018-05-15T00:42:20.196Z,97552.39
2018-05-15T00:42:51.792Z,97550.27
2018-05-15T00:43:23.376Z,97549.00
2018-05-15T00:43:54.978Z,97548.20
2018-05-15T00:44:26.586Z,97544.38
2018-05-15T00:44:58.194Z,97545.66
2018-05-15T00:45:29.822Z,97551.22
2018-05-15T00:46:01.426Z,97545.66
2018-05-15T00:46:33.058Z,97547.81
2018-05-15T00:47:04.628Z,97549.08
2018-05-15T00:47:36.214Z,97549.08
2018-05-15T00:48:07.804Z,97548.66
2018-05-15T00:48:39.440Z,97544.48
2018-05-15T00:49:11.026Z,97549.17
2018-05-15T00:49:42.630Z,97553.05
2018-05-15T00:50:14.222Z,97548.40
2018-05-15T00:50:45.822Z,97545.86
2018-05-15T00:51:17.463Z,97548.86
2018-05-15T00:51:49.037Z,97545.88
2018-05-15T00:52:20.622Z,97550.21
2018-05-15T00:52:52.214Z,97554.05
2018-05-15T00:53:23.810Z,97544.25
2018-05-15T00:53:55.384Z,97550.67
2018-05-15T00:54:26.985Z,97552.41
2018-05-15T00:54:58.594Z,97549.06
2018-05-15T00:55:30.176Z,97552.06
2018-05-15T00:56:01.781Z,97551.22
2018-05-15T00:56:33.398Z,97549.99
2018-05-15T00:57:05.020Z,97543.61
2018-05-15T00:57:36.638Z,97547.03
2018-05-15T00:58:08.213Z,97552.99
2018-05-15T00:58:39.798Z,97546.19
2018-05-15T00:59:11.396Z,97548.33
2018-05-15T00:59:43.006Z,97549.19
2018-05-15T01:00:14.618Z,97551.75
2018-05-15T01:00:46.250Z,97546.63
2018-05-15T01:01:17.853Z,97546.26
2018-05-15T01:01:49.466Z,97550.97
2018-05-15T01:02:21.078Z,97548.84
2018-05-15T01:02:52.661Z,97552.66
2018-05-15T01:03:24.247Z,97549.68
2018-05-15T01:03:55.862Z,97548.83
2018-05-15T01:04:27.472Z,97547.13
2018-05-15T01:04:59.044Z,97545.45
2018-05-15T01:05:30.666Z,97546.26
2018-05-15T01:06:02.280Z,97545.34
2018-05-15T01:06:33.884Z,97546.63
2018-05-15T01:07:05.466Z,97545.40
2018-05-15T01:07:37.057Z,97538.95
2018-05-15T01:08:08.661Z,97544.07
2018-05-15T01:08:40.250Z,97538.53
2018-05-15T01:09:11.858Z,97543.20
2018-05-15T01:09:43.486Z,97541.06
2018-05-15T01:10:15.071Z,97541.03
2018-05-15T01:10:46.654Z,97540.17
2018-05-15T01:11:18.266Z,97544.82
2018-05-15T01:11:49.854Z,97546.08
2018-05-15T01:12:21.443Z,97540.09
2018-05-15T01:12:53.073Z,97540.54
2018-05-15T01:13:24.655Z,97536.25
2018-05-15T01:13:56.257Z,97541.81
2018-05-15T01:14:27.853Z,97542.23
2018-05-15T01:14:59.424Z,97540.52
2018-05-15T01:15:31.001Z,97543.92
2018-05-15T01:16:02.586Z,97539.60
2018-05-15T01:16:34.238Z,97539.16
2018-05-15T01:17:05.845Z,97540.03
2018-05-15T01:17:37.454Z,97537.89
2018-05-15T01:18:09.038Z,97543.43
2018-05-15T01:18:40.650Z,97540.86
2018-05-15T01:19:12.244Z,97540.42
2018-05-15T01:19:43.859Z,97543.41
2018-05-15T01:20:15.442Z,97540.00
2018-05-15T01:20:47.037Z,97537.46
2018-05-15T01:21:18.627Z,97539.16
2018-05-15T01:21:50.207Z,97530.20
2018-05-15T01:22:21.794Z,97530.63
2018-05-15T01:22:53.401Z,97524.22
2018-05-15T01:23:24.996Z,97528.05
2018-05-15T01:23:56.582Z,97525.91
2018-05-15T01:24:28.210Z,97532.30
2018-05-15T01:24:59.813Z,97529.73
2018-05-15T01:25:31.402Z,97530.51
2018-05-15T01:26:02.982Z,97522.41
2018-05-15T01:26:34.581Z,97523.27
2018-05-15T01:27:06.174Z,97514.81
2018-05-15T01:27:37.766Z,97525.41
2018-05-15T01:28:09.360Z,97517.26
2018-05-15T01:28:40.937Z,97519.00
2018-05-15T01:29:12.543Z,97527.11
2018-05-15T01:29:44.125Z,97518.98
2018-05-15T01:30:15.729Z,97523.69
2018-05-15T01:30:47.318Z,97523.31
2018-05-15T01:31:18.917Z,97522.03
2018-05-15T01:31:50.624Z,97518.14
2018-05-15T01:32:22.144Z,97525.83
2018-05-15T01:32:53.736Z,97516.82
2018-05-15T01:33:25.317Z,97514.26
2018-05-15T01:33:56.913Z,97517.23
2018-05-15T01:34:28.518Z,97512.48
2018-05-15T01:35:00.106Z,97520.55
2018-05-15T01:35:31.714Z,97520.08
2018-05-15T01:36:03.354Z,97519.22
2018-05-15T01:36:34.929Z,97522.16
2018-05-15T01:37:06.544Z,97514.07
2018-05-15T01:37:38.122Z,97518.75
2018-05-15T01:38:09.711Z,97513.63
2018-05-15T01:38:41.294Z,97515.27
2018-05-15T01:39:12.868Z,97516.55
2018-05-15T01:39:44.470Z,97513.95
2018-05-15T01:40:16.068Z,97510.98
2018-05-15T01:40:47.678Z,97506.31
2018-05-15T01:41:19.276Z,97509.77
2018-05-15T01:41:50.890Z,97506.69
2018-05-15T01:42:22.457Z,97506.05
2018-05-15T01:42:54.062Z,97508.87
2018-05-15T01:43:25.666Z,97508.93
2018-05-15T01:43:57.280Z,97505.57
2018-05-15T01:44:28.862Z,97514.52
2018-05-15T01:45:00.437Z,97510.42
2018-05-15T01:45:32.076Z,97510.84
2018-05-15T01:46:03.685Z,97510.38
2018-05-15T01:46:35.282Z,97512.07
2018-05-15T01:47:06.873Z,97512.14
2018-05-15T01:47:38.458Z,97507.48
2018-05-15T01:48:10.061Z,97511.72
2018-05-15T01:48:41.674Z,97512.16
2018-05-15T01:49:13.265Z,97514.28
2018-05-15T01:49:44.843Z,97508.30
2018-05-15T01:50:16.436Z,97507.06
2018-05-15T01:50:48.091Z,97506.20
2018-05-15T01:51:19.679Z,97506.25
2018-05-15T01:51:51.258Z,97501.68
2018-05-15T01:52:22.845Z,97507.16
2018-05-15T01:52:54.436Z,97508.83
2018-05-15T01:53:26.009Z,97504.57
2018-05-15T01:53:57.614Z,97506.27
2018-05-15T01:54:29.198Z,97511.84
2018-05-15T01:55:00.779Z,97508.81
2018-05-15T01:55:32.453Z,97506.27
2018-05-15T01:56:04.028Z,97510.52
2018-05-15T01:56:35.610Z,97513.08
2018-05-15T01:57:07.194Z,97514.36
2018-05-15T01:57:38.798Z,97513.52
2018-05-15T01:58:10.373Z,97522.05
2018-05-15T01:58:41.950Z,97520.38
2018-05-15T01:59:13.516Z,97522.52
2018-05-15T01:59:45.085Z,97525.91
2018-05-15T02:00:16.653Z,97520.89
2018-05-15T02:00:48.274Z,97526.37
2018-05-15T02:01:19.854Z,97530.66
2018-05-15T02:01:51.461Z,97534.55
2018-05-15T02:02:23.043Z,97522.97
2018-05-15T02:02:54.650Z,97529.33
2018-05-15T02:03:26.243Z,97530.59
2018-05-15T02:03:57.860Z,97529.26
2018-05-15T02:04:29.470Z,97524.99
2018-05-15T02:05:01.109Z,97521.99
2018-05-15T02:05:32.684Z,97523.70
2018-05-15T02:06:04.253Z,97518.97
2018-05-15T02:06:35.825Z,97520.18
2018-05-15T02:07:07.392Z,97518.02
2018-05-15T02:07:38.984Z,97518.36
2018-05-15T02:08:10.583Z,97523.12
2018-05-15T02:08:42.181Z,97523.06
2018-05-15T02:09:13.757Z,97517.58
2018-05-15T02:09:45.357Z,97518.69
2018-05-15T02:10:16.970Z,97520.81
2018-05-15T02:10:48.594Z,97517.06
2018-05-15T02:11:20.236Z,97522.59
2018-05-15T02:11:51.832Z,97519.64
2018-05-15T02:12:23.418Z,97519.19
2018-05-15T02:12:55.001Z,97522.19
2018-05-15T02:13:26.573Z,97517.99
2018-05-15T02:13:58.148Z,97521.84
2018-05-15T02:14:29.756Z,97522.20
2018-05-15T02:15:01.344Z,97517.06
2018-05-15T02:15:32.936Z,97527.35
2018-05-15T02:16:04.525Z,97522.28
2018-05-15T02:16:36.170Z,97521.44
2018-05-15T02:17:07.757Z,97524.44
2018-05-15T02:17:39.362Z,97521.03
2018-05-15T02:18:10.945Z,97516.78
2018-05-15T02:18:42.549Z,97518.13
2018-05-15T02:19:14.121Z,97523.23
2018-05-15T02:19:45.730Z,97515.55
2018-05-15T02:20:17.317Z,97518.13
2018-05-15T02:20:48.913Z,97524.95
2018-05-15T02:21:20.522Z,97521.12
2018-05-15T02:21:52.186Z,97520.30
2018-05-15T02:22:23.780Z,97518.20
2018-05-15T02:22:55.385Z,97523.77
2018-05-15T02:23:26.983Z,97522.91
2018-05-15T02:23:58.569Z,97517.78
2018-05-15T02:24:30.164Z,97519.01
2018-05-15T02:25:01.761Z,97517.70
2018-05-15T02:25:33.332Z,97512.70
2018-05-15T02:26:04.933Z,97513.52
2018-05-15T02:26:36.504Z,97512.26
2018-05-15T02:27:08.158Z,97518.66
2018-05-15T02:27:39.747Z,97516.09
2018-05-15T02:28:11.332Z,97521.66
2018-05-15T02:28:42.938Z,97520.80
2018-05-15T02:29:14.542Z,97521.24
2018-05-15T02:29:46.150Z,97522.11
2018-05-15T02:30:17.754Z,97522.11
2018-05-15T02:30:49.366Z,97526.44
2018-05-15T02:31:20.978Z,97520.94
2018-05-15T02:31:52.590Z,97526.90
2018-05-15T02:32:24.223Z,97521.36
2018-05-15T02:32:55.807Z,97518.89
2018-05-15T02:33:27.397Z,97513.30
2018-05-15T02:33:58.978Z,97519.29
2018-05-15T02:34:30.573Z,97520.98
2018-05-15T02:35:02.176Z,97520.17
2018-05-15T02:35:33.790Z,97513.72
2018-05-15T02:36:05.374Z,97516.77
2018-05-15T02:36:36.988Z,97528.69
2018-05-15T02:37:08.571Z,97519.31
2018-05-15T02:37:40.165Z,97516.33
2018-05-15T02:38:11.753Z,97519.33
2018-05-15T02:38:43.342Z,97521.03
2018-05-15T02:39:14.946Z,97520.22
2018-05-15T02:39:46.538Z,97526.64
2018-05-15T02:40:18.147Z,97521.54
2018-05-15T02:40:49.758Z,97525.36
2018-05-15T02:41:21.357Z,97524.92
2018-05-15T02:41:52.946Z,97524.41
2018-05-15T02:42:24.523Z,97520.06
2018-05-15T02:42:56.138Z,97516.63
2018-05-15T02:43:27.746Z,97526.37
2018-05-15T02:43:59.353Z,97518.24
2018-05-15T02:44:30.969Z,97524.64
2018-05-15T02:45:02.560Z,97522.50
2018-05-15T02:45:34.137Z,97524.19
2018-05-15T02:46:05.752Z,97522.39
2018-05-15T02:46:37.342Z,97524.11
2018-05-15T02:47:08.925Z,97524.53
2018-05-15T02:47:40.545Z,97526.22
2018-05-15T02:48:12.155Z,97517.27
2018-05-15T02:48:43.739Z,97526.23
2018-05-15T02:49:15.363Z,97524.53
2018-05-15T02:49:46.946Z,97520.77
2018-05-15T02:50:18.534Z,97516.52
2018-05-15T02:50:50.104Z,97525.95
2018-05-15T02:51:21.710Z,97526.81
2018-05-15T02:51:53.305Z,97522.16
2018-05-15T02:52:24.890Z,97523.87
2018-05-15T02:52:56.494Z,97523.87
2018-05-15T02:53:28.077Z,97524.76
2018-05-15T02:53:59.668Z,97530.32
2018-05-15T02:54:31.241Z,97529.05
2018-05-15T02:55:02.886Z,97532.45
2018-05-15T02:55:34.519Z,97526.48
2018-05-15T02:56:06.128Z,97518.52
2018-05-15T02:56:37.728Z,97532.12
2018-05-15T02:57:09.337Z,97525.27
2018-05-15T02:57:40.933Z,97524.85
2018-05-15T02:58:12.542Z,97522.71
2018-05-15T02:58:44.140Z,97523.17
2018-05-15T02:59:15.756Z,97528.30
2018-05-15T02:59:47.329Z,97529.20
2018-05-15T03:00:18.920Z,97522.78
2018-05-15T03:00:50.547Z,97528.34
2018-05-15T03:01:22.164Z,97524.95
2018-05-15T03:01:53.798Z,97524.95
2018-05-15T03:02:25.372Z,97522.38
2018-05-15T03:02:56.955Z,97525.70
2018-05-15T03:03:28.536Z,97523.50
2018-05-15T03:04:00.147Z,97517.49
2018-05-15T03:04:31.759Z,97520.50
2018-05-15T03:05:03.379Z,97518.36
2018-05-15T03:05:34.989Z,97516.63
2018-05-15T03:06:06.578Z,97519.95
2018-05-15T03:06:38.151Z,97519.06
2018-05-15T03:07:09.793Z,97518.20
2018-05-15T03:07:41.382Z,97514.75
2018-05-15T03:08:12.986Z,97516.92
2018-05-15T03:08:44.566Z,97512.67
2018-05-15T03:09:16.162Z,97516.00
2018-05-15T03:09:47.771Z,97511.80
2018-05-15T03:10:19.406Z,97510.00
2018-05-15T03:10:50.978Z,97511.70
2018-05-15T03:11:22.595Z,97513.80
2018-05-15T03:11:54.193Z,97509.56
2018-05-15T03:12:25.779Z,97512.56
2018-05-15T03:12:57.350Z,97509.67
2018-05-15T03:13:28.938Z,97513.84
2018-05-15T03:14:00.559Z,97509.91
2018-05-15T03:14:32.136Z,97511.53
2018-05-15T03:15:03.705Z,97510.25
2018-05-15T03:15:35.306Z,97511.53
2018-05-15T03:16:06.907Z,97509.83
2018-05-15T03:16:38.494Z,97514.52
2018-05-15T03:17:10.150Z,97507.27
2018-05-15T03:17:41.751Z,97510.33
2018-05-15T03:18:13.352Z,97513.67
2018-05-15T03:18:44.961Z,97509.03
2018-05-15T03:19:16.545Z,97497.40
2018-05-15T03:19:48.130Z,97502.66
2018-05-15T03:20:19.717Z,97504.80
2018-05-15T03:20:51.308Z,97501.41
2018-05-15T03:21:22.902Z,97506.53
2018-05-15T03:21:54.496Z,97504.44
2018-05-15T03:22:26.136Z,97501.41
2018-05-15T03:22:57.742Z,97507.86
2018-05-15T03:23:29.355Z,97509.16
2018-05-15T03:24:00.955Z,97504.03
2018-05-15T03:24:32.541Z,97503.27
2018-05-15T03:25:04.136Z,97506.27
2018-05-15T03:25:35.728Z,97504.55
2018-05-15T03:26:07.330Z,97502.45
2018-05-15T03:26:38.949Z,97504.25
2018-05-15T03:27:10.534Z,97503.83
2018-05-15T03:27:42.105Z,97511.05
2018-05-15T03:28:13.686Z,97505.55
2018-05-15T03:28:45.280Z,97502.97
2018-05-15T03:29:16.862Z,97507.16
2018-05-15T03:29:48.457Z,97506.80
2018-05-15T03:30:20.065Z,97509.28
2018-05-15T03:30:51.660Z,97505.43
2018-05-15T03:31:23.232Z,97505.43
2018-05-15T03:31:54.882Z,97511.00
2018-05-15T03:32:26.490Z,97508.92
2018-05-15T03:32:58.093Z,97512.70
2018-05-15T03:33:29.678Z,97508.87
2018-05-15T03:34:01.255Z,97514.47
2018-05-15T03:34:32.866Z,97516.56
2018-05-15T03:35:04.473Z,97517.45
2018-05-15T03:35:36.072Z,97518.34
2018-05-15T03:36:07.662Z,97515.35
2018-05-15T03:36:39.242Z,97521.31
2018-05-15T03:37:10.836Z,97522.59
2018-05-15T03:37:42.449Z,97515.33
2018-05-15T03:38:14.062Z,97515.35
2018-05-15T03:38:45.647Z,97517.91
2018-05-15T03:39:17.290Z,97516.22
2018-05-15T03:39:48.884Z,97518.36
2018-05-15T03:40:20.471Z,97516.66
2018-05-15T03:40:52.056Z,97516.29
2018-05-15T03:41:23.638Z,97509.05
2018-05-15T03:41:55.247Z,97506.92
2018-05-15T03:42:26.834Z,97510.36
2018-05-15T03:42:58.428Z,97510.41
2018-05-15T03:43:30.010Z,97520.66
2018-05-15T03:44:01.604Z,97518.09
2018-05-15T03:44:33.200Z,97512.98
2018-05-15T03:45:04.809Z,97517.23
2018-05-15T03:45:36.407Z,97509.55
2018-05-15T03:46:08.018Z,97512.12
2018-05-15T03:46:39.629Z,97511.28
2018-05-15T03:47:11.205Z,97512.14
2018-05-15T03:47:42.814Z,97508.31
2018-05-15T03:48:14.397Z,97512.53
2018-05-15T03:48:45.996Z,97513.33
2018-05-15T03:49:17.640Z,97499.23
2018-05-15T03:49:49.257Z,97516.75
2018-05-15T03:50:20.860Z,97513.77
2018-05-15T03:50:52.470Z,97511.63
2018-05-15T03:51:24.065Z,97514.63
2018-05-15T03:51:55.669Z,97510.84
2018-05-15T03:52:27.254Z,97514.20
2018-05-15T03:52:58.861Z,97515.48
2018-05-15T03:53:30.450Z,97513.42
2018-05-15T03:54:02.034Z,97510.86
2018-05-15T03:54:33.647Z,97515.14
2018-05-15T03:55:05.304Z,97512.16
2018-05-15T03:55:36.905Z,97509.59
2018-05-15T03:56:08.519Z,97506.61
2018-05-15T03:56:40.117Z,97507.53
2018-05-15T03:57:11.707Z,97505.39
2018-05-15T03:57:43.290Z,97507.14
2018-05-15T03:58:14.914Z,97509.62
2018-05-15T03:58:46.502Z,97508.80
2018-05-15T03:59:18.102Z,97504.12
2018-05-15T03:59:49.724Z,97511.39
2018-05-15T04:00:21.297Z,97513.09
2018-05-15T04:00:52.905Z,97513.53
2018-05-15T04:01:24.504Z,97514.81
2018-05-15T04:01:56.090Z,97507.97
2018-05-15T04:02:27.694Z,97506.19
2018-05-15T04:02:59.306Z,97515.12
2018-05-15T04:03:30.908Z,97511.72
2018-05-15T04:04:02.495Z,97516.86
2018-05-15T04:04:34.064Z,97509.34
2018-05-15T04:05:05.720Z,97512.59
2018-05-15T04:05:37.334Z,97513.09
2018-05-15T04:06:08.908Z,97521.63
2018-05-15T04:06:40.502Z,97520.80
2018-05-15T04:07:12.110Z,97521.66
2018-05-15T04:07:43.701Z,97519.94
2018-05-15T04:08:15.304Z,97522.09
2018-05-15T04:08:46.965Z,97520.87
2018-05-15T04:09:18.482Z,97520.45
2018-05-15T04:09:50.061Z,97527.27
2018-05-15T04:10:21.702Z,97529.41
2018-05-15T04:10:53.321Z,97527.75
2018-05-15T04:11:24.958Z,97529.02
2018-05-15T04:11:56.542Z,97520.91
2018-05-15T04:12:28.113Z,97529.03
2018-05-15T04:12:59.722Z,97529.92
2018-05-15T04:13:31.314Z,97527.82
2018-05-15T04:14:02.894Z,97526.10
2018-05-15T04:14:34.502Z,97530.38
2018-05-15T04:15:06.093Z,97526.13
2018-05-15T04:15:37.669Z,97529.10
2018-05-15T04:16:09.258Z,97527.49
2018-05-15T04:16:40.904Z,97533.80
2018-05-15T04:17:12.518Z,97535.08
2018-05-15T04:17:44.089Z,97529.54
2018-05-15T04:18:15.695Z,97530.73
2018-05-15T04:18:47.268Z,97529.85
2018-05-15T04:19:18.846Z,97533.27
2018-05-15T04:19:50.468Z,97529.02
2018-05-15T04:20:22.076Z,97531.57
2018-05-15T04:20:53.662Z,97529.45
2018-05-15T04:21:25.240Z,97529.03
2018-05-15T04:21:56.845Z,97528.22
2018-05-15T04:22:28.434Z,97529.45
2018-05-15T04:23:00.038Z,97530.31
2018-05-15T04:23:31.626Z,97525.61
2018-05-15T04:24:03.220Z,97525.61
2018-05-15T04:24:34.807Z,97525.19
2018-05-15T04:25:06.470Z,97530.36
2018-05-15T04:25:38.049Z,97525.66
2018-05-15T04:26:09.640Z,97527.38
2018-05-15T04:26:41.255Z,97527.38
2018-05-15T04:27:12.853Z,97528.22
2018-05-15T04:27:44.438Z,97526.94
2018-05-15T04:28:16.125Z,97527.38
2018-05-15T04:28:47.646Z,97522.28
2018-05-15T04:29:19.248Z,97521.86
2018-05-15T04:29:50.821Z,97522.70
2018-05-15T04:30:22.475Z,97524.86
2018-05-15T04:30:54.058Z,97520.16
2018-05-15T04:31:25.642Z,97521.86
2018-05-15T04:31:57.228Z,97520.23
2018-05-15T04:32:28.887Z,97516.75
2018-05-15T04:33:00.495Z,97520.16
2018-05-15T04:33:32.110Z,97518.45
2018-05-15T04:34:03.699Z,97516.75
2018-05-15T04:34:35.269Z,97522.72
2018-05-15T04:35:06.878Z,97512.10
2018-05-15T04:35:38.445Z,97517.16
2018-05-15T04:36:10.021Z,97516.31
2018-05-15T04:36:41.627Z,97514.59
2018-05-15T04:37:13.241Z,97518.02
2018-05-15T04:37:44.856Z,97518.45
2018-05-15T04:38:16.434Z,97521.44
2018-05-15T04:38:48.024Z,97518.93
2018-05-15T04:39:19.634Z,97515.45
2018-05-15T04:39:51.204Z,97516.73
2018-05-15T04:40:22.815Z,97519.72
2018-05-15T04:40:54.412Z,97520.14
2018-05-15T04:41:25.994Z,97512.88
2018-05-15T04:41:57.574Z,97517.13
2018-05-15T04:42:29.177Z,97512.38
2018-05-15T04:43:00.802Z,97519.19
2018-05-15T04:43:32.446Z,97511.43
2018-05-15T04:44:04.038Z,97506.73
2018-05-15T04:44:35.641Z,97510.13
2018-05-15T04:45:07.236Z,97518.23
2018-05-15T04:45:38.822Z,97508.84
2018-05-15T04:46:10.414Z,97513.93
2018-05-15T04:46:42.002Z,97514.72
2018-05-15T04:47:13.610Z,97508.73
2018-05-15T04:47:45.213Z,97518.56
2018-05-15T04:48:16.832Z,97517.28
2018-05-15T04:48:48.490Z,97513.07
2018-05-15T04:49:20.141Z,97522.89
2018-05-15T04:49:51.689Z,97517.72
2018-05-15T04:50:23.270Z,97515.66
2018-05-15T04:50:54.854Z,97520.34
2018-05-15T04:51:26.444Z,97520.38
2018-05-15T04:51:58.054Z,97520.38
2018-05-15T04:52:29.629Z,97523.37
2018-05-15T04:53:01.219Z,97518.30
2018-05-15T04:53:32.798Z,97523.37
2018-05-15T04:54:04.395Z,97521.23
2018-05-15T04:54:36.003Z,97522.95
2018-05-15T04:55:07.613Z,97518.72
2018-05-15T04:55:39.232Z,97520.02
2018-05-15T04:56:10.813Z,97527.69
2018-05-15T04:56:42.402Z,97520.00
2018-05-15T04:57:14.006Z,97526.41
2018-05-15T04:57:45.613Z,97525.98
2018-05-15T04:58:17.227Z,97526.80
2018-05-15T04:58:48.874Z,97528.92
2018-05-15T04:59:20.473Z,97520.38
2018-05-15T04:59:52.064Z,97526.41
2018-05-15T05:00:23.640Z,97534.46
2018-05-15T05:00:55.212Z,97528.05
2018-05-15T05:01:26.822Z,97527.16
2018-05-15T05:01:58.479Z,97528.77
2018-05-15T05:02:30.042Z,97527.86
2018-05-15T05:03:01.665Z,97527.74
2018-05-15T05:03:33.265Z,97526.42
2018-05-15T05:04:04.873Z,97531.91
2018-05-15T05:04:36.479Z,97530.17
2018-05-15T05:05:08.076Z,97525.41
2018-05-15T05:05:39.649Z,97526.66
2018-05-15T05:06:11.234Z,97528.78
2018-05-15T05:06:42.841Z,97526.16
2018-05-15T05:07:14.416Z,97526.14
2018-05-15T05:07:46.009Z,97530.38
2018-05-15T05:08:17.658Z,97532.47
2018-05-15T05:08:49.266Z,97531.16
2018-05-15T05:09:20.846Z,97532.41
2018-05-15T05:09:52.426Z,97529.03
2018-05-15T05:10:24.021Z,97530.83
2018-05-15T05:10:55.625Z,97529.16
2018-05-15T05:11:27.203Z,97527.00
2018-05-15T05:11:58.784Z,97529.16
2018-05-15T05:12:30.432Z,97527.95
2018-05-15T05:13:02.020Z,97525.38
2018-05-15T05:13:33.610Z,97531.78
2018-05-15T05:14:05.242Z,97527.50
2018-05-15T05:14:36.847Z,97530.38
2018-05-15T05:15:08.462Z,97528.24
2018-05-15T05:15:40.037Z,97526.87
2018-05-15T05:16:11.614Z,97528.41
2018-05-15T05:16:43.218Z,97528.38
2018-05-15T05:17:14.821Z,97525.52
2018-05-15T05:17:46.426Z,97528.08
2018-05-15T05:18:18.024Z,97529.88
2018-05-15T05:18:49.634Z,97523.91
2018-05-15T05:19:21.262Z,97531.08
2018-05-15T05:19:52.865Z,97528.50
2018-05-15T05:20:24.458Z,97522.97
2018-05-15T05:20:56.033Z,97528.50
2018-05-15T05:21:27.614Z,97527.96
2018-05-15T05:21:59.218Z,97527.56
2018-05-15T05:22:30.847Z,97527.52
2018-05-15T05:23:02.454Z,97524.58
2018-05-15T05:23:34.038Z,97530.98
2018-05-15T05:24:05.632Z,97527.45
2018-05-15T05:24:37.226Z,97522.74
2018-05-15T05:25:08.816Z,97520.59
2018-05-15T05:25:40.403Z,97525.27
2018-05-15T05:26:11.987Z,97525.75
2018-05-15T05:26:43.582Z,97522.30
2018-05-15T05:27:15.268Z,97522.30
2018-05-15T05:27:46.818Z,97521.95
2018-05-15T05:28:18.402Z,97519.22
2018-05-15T05:28:49.981Z,97525.68
2018-05-15T05:29:21.619Z,97524.00
2018-05-15T05:29:53.213Z,97517.25
2018-05-15T05:30:24.804Z,97518.55
2018-05-15T05:30:56.409Z,97519.88
2018-05-15T05:31:28.034Z,97519.45
2018-05-15T05:31:59.604Z,97519.11
2018-05-15T05:32:31.176Z,97516.64
2018-05-15T05:33:02.749Z,97517.10
2018-05-15T05:33:34.335Z,97516.31
2018-05-15T05:34:05.909Z,97513.75
2018-05-15T05:34:37.492Z,97512.98
2018-05-15T05:35:09.126Z,97516.78
2018-05-15T05:35:40.734Z,97515.97
2018-05-15T05:36:12.394Z,97512.12
2018-05-15T05:36:43.998Z,97516.45
2018-05-15T05:37:15.592Z,97511.33
2018-05-15T05:37:47.178Z,97510.12
2018-05-15T05:38:18.744Z,97510.02
2018-05-15T05:38:50.321Z,97512.16
2018-05-15T05:39:21.921Z,97510.95
2018-05-15T05:39:53.506Z,97508.39
2018-05-15T05:40:25.077Z,97510.09
2018-05-15T05:40:56.667Z,97508.81
2018-05-15T05:41:28.313Z,97503.71
2018-05-15T05:41:59.917Z,97505.88
2018-05-15T05:42:31.506Z,97499.47
2018-05-15T05:43:03.080Z,97511.44
2018-05-15T05:43:34.686Z,97509.34
2018-05-15T05:44:06.274Z,97502.52
2018-05-15T05:44:37.851Z,97502.95
2018-05-15T05:45:09.434Z,97504.64
2018-05-15T05:45:41.031Z,97502.13
2018-05-15T05:46:12.630Z,97504.23
2018-05-15T05:46:44.264Z,97496.98
2018-05-15T05:47:15.841Z,97498.28
2018-05-15T05:47:47.425Z,97504.27
2018-05-15T05:48:19.008Z,97505.11
2018-05-15T05:48:50.613Z,97499.22
2018-05-15T05:49:22.230Z,97504.28
2018-05-15T05:49:53.837Z,97500.91
2018-05-15T05:50:25.423Z,97499.16
2018-05-15T05:50:57.066Z,97500.91
2018-05-15T05:51:28.652Z,97500.45
2018-05-15T05:52:00.276Z,97500.42
2018-05-15T05:52:31.856Z,97500.45
2018-05-15T05:53:03.452Z,97504.66
2018-05-15T05:53:35.052Z,97495.28
2018-05-15T05:54:06.669Z,97508.06
2018-05-15T05:54:38.318Z,97498.63
2018-05-15T05:55:09.892Z,97508.06
2018-05-15T05:55:41.460Z,97508.86
2018-05-15T05:56:13.056Z,97507.59
2018-05-15T05:56:44.666Z,97507.65
2018-05-15T05:57:16.326Z,97504.23
2018-05-15T05:57:47.872Z,97512.34
2018-05-15T05:58:19.486Z,97514.91
2018-05-15T05:58:51.090Z,97508.51
2018-05-15T05:59:22.674Z,97511.52
2018-05-15T05:59:54.301Z,97506.41
2018-05-15T06:00:25.881Z,97504.28
2018-05-15T06:00:57.465Z,97507.25
2018-05-15T06:01:29.074Z,97509.39
2018-05-15T06:02:00.673Z,97506.45
2018-05-15T06:02:32.276Z,97506.06
2018-05-15T06:03:03.852Z,97509.50
2018-05-15T06:03:35.489Z,97508.22
2018-05-15T06:04:07.079Z,97504.25
2018-05-15T06:04:38.730Z,97517.82
2018-05-15T06:05:10.314Z,97513.09
2018-05-15T06:05:41.918Z,97510.05
2018-05-15T06:06:13.506Z,97508.67
2018-05-15T06:06:45.104Z,97509.93
2018-05-15T06:07:16.725Z,97508.97
2018-05-15T06:07:48.313Z,97509.41
2018-05-15T06:08:19.906Z,97510.25
2018-05-15T06:08:51.498Z,97505.09
2018-05-15T06:09:23.087Z,97507.25
2018-05-15T06:09:54.718Z,97510.23
2018-05-15T06:10:26.317Z,97506.91
2018-05-15T06:10:57.930Z,97509.91